sensor_id;sensor_type;location;lat;lon;timestamp;pressure;altitude;pressure_sealevel;temperature;humidity
75996;BME280;64681;49.738;9.004;2022-12-07T00:01:07;99608.38;;;3.95;76.78
75996;BME280;64681;49.738;9.004;2022-12-07T00:03:33;99603.94;;;3.91;76.48
75996;BME280;64681;49.738;9.004;2022-12-07T00:06:00;99597.50;;;4.02;76.27
75996;BME280;64681;49.738;9.004;2022-12-07T00:08:26;99598.56;;;3.72;76.27
75996;BME280;64681;49.738;9.004;2022-12-07T00:10:51;99593.41;;;3.56;77.14
75996;BME280;64681;49.738;9.004;2022-12-07T00:13:17;99586.72;;;3.64;76.73
75996;BME280;64681;49.738;9.004;2022-12-07T00:15:42;99590.31;;;3.49;76.87
75996;BME280;64681;49.738;9.004;2022-12-07T00:18:08;99582.06;;;3.56;77.39
75996;BME280;64681;49.738;9.004;2022-12-07T00:20:34;99578.78;;;3.69;76.68
75996;BME280;64681;49.738;9.004;2022-12-07T00:22:59;99579.56;;;3.70;76.38
75996;BME280;64681;49.738;9.004;2022-12-07T00:25:25;99578.19;;;3.77;76.28
75996;BME280;64681;49.738;9.004;2022-12-07T00:27:53;99580.75;;;3.53;77.32
75996;BME280;64681;49.738;9.004;2022-12-07T00:30:21;99580.56;;;3.44;77.33
75996;BME280;64681;49.738;9.004;2022-12-07T00:32:47;99578.00;;;3.34;78.25
75996;BME280;64681;49.738;9.004;2022-12-07T00:35:13;99572.88;;;3.48;77.26
75996;BME280;64681;49.738;9.004;2022-12-07T00:37:38;99572.47;;;3.65;76.89
75996;BME280;64681;49.738;9.004;2022-12-07T00:40:05;99564.44;;;3.46;77.69
75996;BME280;64681;49.738;9.004;2022-12-07T00:42:30;99564.00;;;3.68;76.90
75996;BME280;64681;49.738;9.004;2022-12-07T00:44:56;99566.91;;;3.96;75.58
75996;BME280;64681;49.738;9.004;2022-12-07T00:47:21;99556.53;;;3.46;77.25
75996;BME280;64681;49.738;9.004;2022-12-07T00:49:47;99525.81;;;3.55;76.58
75996;BME280;64681;49.738;9.004;2022-12-07T00:52:12;99556.47;;;3.80;76.25
75996;BME280;64681;49.738;9.004;2022-12-07T00:54:38;99557.13;;;3.38;77.63
75996;BME280;64681;49.738;9.004;2022-12-07T00:57:04;99549.00;;;3.88;75.80
75996;BME280;64681;49.738;9.004;2022-12-07T00:59:30;99557.97;;;4.16;75.05
75996;BME280;64681;49.738;9.004;2022-12-07T01:01:55;99556.72;;;4.33;73.85
75996;BME280;64681;49.738;9.004;2022-12-07T01:04:21;99556.72;;;4.33;73.30
75996;BME280;64681;49.738;9.004;2022-12-07T01:06:46;99548.19;;;4.17;74.06
75996;BME280;64681;49.738;9.004;2022-12-07T01:09:12;99543.91;;;3.96;74.52
75996;BME280;64681;49.738;9.004;2022-12-07T01:11:37;99533.84;;;3.99;74.93
75996;BME280;64681;49.738;9.004;2022-12-07T01:14:03;99537.16;;;3.85;75.70
75996;BME280;64681;49.738;9.004;2022-12-07T01:16:31;99541.16;;;4.31;74.00
75996;BME280;64681;49.738;9.004;2022-12-07T01:18:58;99548.97;;;3.93;74.86
75996;BME280;64681;49.738;9.004;2022-12-07T01:21:27;99557.28;;;3.52;76.76
75996;BME280;64681;49.738;9.004;2022-12-07T01:23:54;99556.75;;;3.20;78.06
75996;BME280;64681;49.738;9.004;2022-12-07T01:26:23;99551.84;;;3.38;77.74
75996;BME280;64681;49.738;9.004;2022-12-07T01:28:50;99548.53;;;3.56;77.05
75996;BME280;64681;49.738;9.004;2022-12-07T01:31:23;99547.19;;;3.59;76.90
75996;BME280;64681;49.738;9.004;2022-12-07T01:33:55;99553.38;;;3.73;76.80
75996;BME280;64681;49.738;9.004;2022-12-07T01:38:48;99556.94;;;3.88;75.81
75996;BME280;64681;49.738;9.004;2022-12-07T01:41:17;99552.09;;;3.71;75.92
75996;BME280;64681;49.738;9.004;2022-12-07T01:44:09;99546.63;;;3.62;76.40
75996;BME280;64681;49.738;9.004;2022-12-07T01:46:35;99554.72;;;3.41;77.08
75996;BME280;64681;49.738;9.004;2022-12-07T01:49:02;99556.41;;;3.32;77.47
75996;BME280;64681;49.738;9.004;2022-12-07T01:51:29;99554.47;;;3.43;77.15
75996;BME280;64681;49.738;9.004;2022-12-07T01:53:55;99557.03;;;3.48;77.07
75996;BME280;64681;49.738;9.004;2022-12-07T01:56:26;99551.81;;;3.08;78.93
75996;BME280;64681;49.738;9.004;2022-12-07T01:58:55;99547.66;;;3.37;78.39
75996;BME280;64681;49.738;9.004;2022-12-07T02:01:22;99538.75;;;3.57;77.71
75996;BME280;64681;49.738;9.004;2022-12-07T02:03:48;99543.06;;;3.47;77.92
75996;BME280;64681;49.738;9.004;2022-12-07T02:06:19;99537.44;;;3.54;77.96
75996;BME280;64681;49.738;9.004;2022-12-07T02:08:47;99532.00;;;3.11;78.90
75996;BME280;64681;49.738;9.004;2022-12-07T02:11:13;99533.28;;;3.48;77.96
75996;BME280;64681;49.738;9.004;2022-12-07T02:13:41;99532.69;;;3.56;77.72
75996;BME280;64681;49.738;9.004;2022-12-07T02:27:01;99521.72;;;3.98;76.81
75996;BME280;64681;49.738;9.004;2022-12-07T02:29:57;99525.53;;;3.86;76.44
75996;BME280;64681;49.738;9.004;2022-12-07T02:32:40;99523.03;;;3.71;77.14
75996;BME280;64681;49.738;9.004;2022-12-07T02:43:24;99519.72;;;3.84;77.34
75996;BME280;64681;49.738;9.004;2022-12-07T02:45:54;99516.88;;;3.80;77.67
75996;BME280;64681;49.738;9.004;2022-12-07T02:48:23;99523.22;;;3.79;77.47
75996;BME280;64681;49.738;9.004;2022-12-07T02:50:52;99512.38;;;4.05;76.60
75996;BME280;64681;49.738;9.004;2022-12-07T02:53:37;99512.81;;;4.12;76.63
75996;BME280;64681;49.738;9.004;2022-12-07T03:07:29;99505.34;;;4.20;76.26
75996;BME280;64681;49.738;9.004;2022-12-07T03:13:16;99499.50;;;4.42;75.59
75996;BME280;64681;49.738;9.004;2022-12-07T03:15:54;99491.38;;;4.38;75.08
75996;BME280;64681;49.738;9.004;2022-12-07T03:18:24;99490.09;;;4.36;75.46
75996;BME280;64681;49.738;9.004;2022-12-07T03:20:55;99476.44;;;4.28;75.79
75996;BME280;64681;49.738;9.004;2022-12-07T03:23:25;99479.94;;;4.24;75.46
75996;BME280;64681;49.738;9.004;2022-12-07T03:25:57;99478.47;;;4.12;75.45
75996;BME280;64681;49.738;9.004;2022-12-07T03:28:31;99467.47;;;4.24;75.68
75996;BME280;64681;49.738;9.004;2022-12-07T03:31:19;99487.19;;;3.89;76.77
75996;BME280;64681;49.738;9.004;2022-12-07T03:36:40;99482.84;;;4.22;75.30
75996;BME280;64681;49.738;9.004;2022-12-07T03:39:23;99488.13;;;4.22;75.65
75996;BME280;64681;49.738;9.004;2022-12-07T03:41:51;99490.31;;;4.15;76.23
75996;BME280;64681;49.738;9.004;2022-12-07T03:44:18;99488.47;;;4.16;76.50
75996;BME280;64681;49.738;9.004;2022-12-07T03:47:01;99481.63;;;4.15;76.75
75996;BME280;64681;49.738;9.004;2022-12-07T03:52:33;99480.34;;;4.31;75.43
75996;BME280;64681;49.738;9.004;2022-12-07T03:57:44;99476.13;;;3.87;78.59
75996;BME280;64681;49.738;9.004;2022-12-07T04:00:12;99472.84;;;4.19;77.44
75996;BME280;64681;49.738;9.004;2022-12-07T04:02:39;99468.56;;;4.42;76.70
75996;BME280;64681;49.738;9.004;2022-12-07T04:05:05;99476.22;;;4.25;76.98
75996;BME280;64681;49.738;9.004;2022-12-07T04:07:31;99481.13;;;4.32;77.12
75996;BME280;64681;49.738;9.004;2022-12-07T04:09:57;99485.50;;;4.60;75.68
75996;BME280;64681;49.738;9.004;2022-12-07T04:12:23;99483.13;;;4.40;76.52
75996;BME280;64681;49.738;9.004;2022-12-07T04:14:49;99490.00;;;3.73;79.61
75996;BME280;64681;49.738;9.004;2022-12-07T04:17:14;99486.97;;;3.61;79.88
75996;BME280;64681;49.738;9.004;2022-12-07T04:19:40;99493.53;;;3.63;80.28
75996;BME280;64681;49.738;9.004;2022-12-07T04:22:06;99484.56;;;3.89;79.43
75996;BME280;64681;49.738;9.004;2022-12-07T04:24:33;99490.69;;;4.08;78.72
75996;BME280;64681;49.738;9.004;2022-12-07T04:26:59;99477.47;;;4.08;78.62
75996;BME280;64681;49.738;9.004;2022-12-07T04:29:26;99485.84;;;4.16;78.49
75996;BME280;64681;49.738;9.004;2022-12-07T04:31:52;99488.19;;;3.69;80.62
75996;BME280;64681;49.738;9.004;2022-12-07T04:34:18;99479.88;;;3.80;80.18
75996;BME280;64681;49.738;9.004;2022-12-07T04:36:45;99483.38;;;4.00;78.92
75996;BME280;64681;49.738;9.004;2022-12-07T04:39:20;99484.25;;;4.15;78.64
75996;BME280;64681;49.738;9.004;2022-12-07T04:41:46;99479.53;;;4.11;78.62
75996;BME280;64681;49.738;9.004;2022-12-07T04:44:13;99474.81;;;4.08;79.01
75996;BME280;64681;49.738;9.004;2022-12-07T04:46:40;99461.66;;;4.03;78.59
75996;BME280;64681;49.738;9.004;2022-12-07T04:49:06;99479.16;;;3.99;79.32
75996;BME280;64681;49.738;9.004;2022-12-07T04:51:31;99473.50;;;3.87;79.21
75996;BME280;64681;49.738;9.004;2022-12-07T04:53:58;99474.16;;;3.98;79.18
75996;BME280;64681;49.738;9.004;2022-12-07T04:56:24;99474.69;;;4.38;77.98
75996;BME280;64681;49.738;9.004;2022-12-07T04:58:52;99482.56;;;4.24;78.43
75996;BME280;64681;49.738;9.004;2022-12-07T05:01:19;99475.81;;;4.12;78.69
75996;BME280;64681;49.738;9.004;2022-12-07T05:03:45;99475.31;;;4.10;79.08
75996;BME280;64681;49.738;9.004;2022-12-07T05:06:11;99475.28;;;4.35;78.12
75996;BME280;64681;49.738;9.004;2022-12-07T05:08:38;99472.66;;;4.35;77.44
75996;BME280;64681;49.738;9.004;2022-12-07T05:11:05;99471.41;;;4.27;78.20
75996;BME280;64681;49.738;9.004;2022-12-07T05:13:32;99473.47;;;4.11;78.54
75996;BME280;64681;49.738;9.004;2022-12-07T05:15:58;99479.66;;;3.23;81.44
75996;BME280;64681;49.738;9.004;2022-12-07T05:18:24;99485.81;;;3.43;80.49
75996;BME280;64681;49.738;9.004;2022-12-07T05:20:50;99483.84;;;3.83;79.73
75996;BME280;64681;49.738;9.004;2022-12-07T05:23:17;99475.28;;;3.43;80.68
75996;BME280;64681;49.738;9.004;2022-12-07T05:25:43;99473.78;;;3.61;80.64
75996;BME280;64681;49.738;9.004;2022-12-07T05:28:09;99476.47;;;3.80;79.90
75996;BME280;64681;49.738;9.004;2022-12-07T05:30:35;99469.59;;;4.03;79.45
75996;BME280;64681;49.738;9.004;2022-12-07T05:33:00;99477.59;;;3.98;79.87
75996;BME280;64681;49.738;9.004;2022-12-07T05:35:26;99472.22;;;4.03;79.13
75996;BME280;64681;49.738;9.004;2022-12-07T05:37:52;99472.31;;;3.98;78.81
75996;BME280;64681;49.738;9.004;2022-12-07T05:40:17;99475.41;;;4.24;78.20
75996;BME280;64681;49.738;9.004;2022-12-07T05:42:44;99475.78;;;3.93;79.52
75996;BME280;64681;49.738;9.004;2022-12-07T05:45:10;99479.03;;;3.85;79.70
75996;BME280;64681;49.738;9.004;2022-12-07T05:47:37;99470.44;;;3.99;79.17
75996;BME280;64681;49.738;9.004;2022-12-07T05:50:04;99474.38;;;3.77;79.95
75996;BME280;64681;49.738;9.004;2022-12-07T05:52:31;99475.31;;;4.10;79.24
75996;BME280;64681;49.738;9.004;2022-12-07T05:54:57;99470.94;;;4.01;79.51
75996;BME280;64681;49.738;9.004;2022-12-07T05:57:22;99467.47;;;3.81;80.17
75996;BME280;64681;49.738;9.004;2022-12-07T05:59:48;99477.06;;;4.20;78.88
75996;BME280;64681;49.738;9.004;2022-12-07T06:02:15;99474.97;;;4.17;78.97
75996;BME280;64681;49.738;9.004;2022-12-07T06:04:44;99472.91;;;4.33;78.27
75996;BME280;64681;49.738;9.004;2022-12-07T06:07:12;99462.63;;;4.32;77.70
75996;BME280;64681;49.738;9.004;2022-12-07T06:09:38;99463.63;;;4.17;78.28
75996;BME280;64681;49.738;9.004;2022-12-07T06:12:05;99466.50;;;3.96;78.66
75996;BME280;64681;49.738;9.004;2022-12-07T06:14:49;99462.16;;;4.05;78.98
75996;BME280;64681;49.738;9.004;2022-12-07T06:17:15;99467.41;;;3.86;79.56
75996;BME280;64681;49.738;9.004;2022-12-07T06:19:41;99465.03;;;4.09;79.00
75996;BME280;64681;49.738;9.004;2022-12-07T06:22:07;99471.84;;;4.34;78.01
75996;BME280;64681;49.738;9.004;2022-12-07T06:24:34;99475.06;;;4.31;78.02
75996;BME280;64681;49.738;9.004;2022-12-07T06:27:00;99474.66;;;4.43;77.98
75996;BME280;64681;49.738;9.004;2022-12-07T06:29:26;99464.72;;;4.54;77.26
75996;BME280;64681;49.738;9.004;2022-12-07T06:31:52;99471.69;;;4.25;78.29
75996;BME280;64681;49.738;9.004;2022-12-07T06:34:20;99464.31;;;4.22;78.27
75996;BME280;64681;49.738;9.004;2022-12-07T06:36:48;99471.41;;;4.27;78.49
75996;BME280;64681;49.738;9.004;2022-12-07T06:39:22;99472.56;;;4.21;78.45
75996;BME280;64681;49.738;9.004;2022-12-07T06:41:48;99477.50;;;4.27;78.82
75996;BME280;64681;49.738;9.004;2022-12-07T06:44:14;99484.22;;;4.39;78.13
75996;BME280;64681;49.738;9.004;2022-12-07T06:46:39;99482.72;;;4.52;77.49
75996;BME280;64681;49.738;9.004;2022-12-07T06:49:05;99471.38;;;4.32;77.97
75996;BME280;64681;49.738;9.004;2022-12-07T06:51:33;99448.34;;;4.33;77.42
75996;BME280;64681;49.738;9.004;2022-12-07T06:54:00;99472.34;;;4.55;76.91
75996;BME280;64681;49.738;9.004;2022-12-07T06:56:26;99470.44;;;4.61;76.28
75996;BME280;64681;49.738;9.004;2022-12-07T06:58:51;99480.84;;;4.71;76.66
75996;BME280;64681;49.738;9.004;2022-12-07T07:01:18;99465.56;;;4.68;76.16
75996;BME280;64681;49.738;9.004;2022-12-07T07:03:45;99485.28;;;4.38;77.34
75996;BME280;64681;49.738;9.004;2022-12-07T07:06:12;99475.13;;;4.45;77.56
75996;BME280;64681;49.738;9.004;2022-12-07T07:08:39;99473.16;;;4.56;77.25
75996;BME280;64681;49.738;9.004;2022-12-07T07:11:06;99479.44;;;4.41;77.54
75996;BME280;64681;49.738;9.004;2022-12-07T07:13:31;99482.16;;;4.55;76.90
75996;BME280;64681;49.738;9.004;2022-12-07T07:15:57;99479.00;;;4.53;76.44
75996;BME280;64681;49.738;9.004;2022-12-07T07:18:23;99488.44;;;4.40;77.42
75996;BME280;64681;49.738;9.004;2022-12-07T07:20:50;99491.88;;;4.59;76.52
75996;BME280;64681;49.738;9.004;2022-12-07T07:23:17;99488.31;;;4.50;76.70
75996;BME280;64681;49.738;9.004;2022-12-07T07:25:42;99487.50;;;4.31;77.83
75996;BME280;64681;49.738;9.004;2022-12-07T07:28:08;99487.50;;;4.31;77.25
75996;BME280;64681;49.738;9.004;2022-12-07T07:30:33;99484.72;;;4.60;76.47
75996;BME280;64681;49.738;9.004;2022-12-07T07:33:03;99481.53;;;4.63;76.52
75996;BME280;64681;49.738;9.004;2022-12-07T07:35:31;99494.28;;;4.94;75.54
75996;BME280;64681;49.738;9.004;2022-12-07T07:37:57;99495.06;;;5.28;74.36
75996;BME280;64681;49.738;9.004;2022-12-07T07:40:23;99499.47;;;5.18;74.64
75996;BME280;64681;49.738;9.004;2022-12-07T07:42:51;99501.75;;;5.06;75.68
75996;BME280;64681;49.738;9.004;2022-12-07T07:45:18;99505.97;;;5.07;75.35
75996;BME280;64681;49.738;9.004;2022-12-07T07:47:44;99504.66;;;4.52;77.16
75996;BME280;64681;49.738;9.004;2022-12-07T07:50:10;99498.16;;;4.83;76.15
75996;BME280;64681;49.738;9.004;2022-12-07T07:52:35;99495.50;;;4.83;77.14
75996;BME280;64681;49.738;9.004;2022-12-07T07:55:01;99506.56;;;5.04;75.61
75996;BME280;64681;49.738;9.004;2022-12-07T07:57:26;99502.16;;;4.80;76.53
75996;BME280;64681;49.738;9.004;2022-12-07T07:59:52;99500.38;;;4.75;76.00
75996;BME280;64681;49.738;9.004;2022-12-07T08:02:19;99501.63;;;4.97;75.15
75996;BME280;64681;49.738;9.004;2022-12-07T08:04:46;99480.19;;;4.80;75.23
75996;BME280;64681;49.738;9.004;2022-12-07T08:07:13;99504.88;;;5.27;75.09
75996;BME280;64681;49.738;9.004;2022-12-07T08:09:39;99502.06;;;5.04;74.86
75996;BME280;64681;49.738;9.004;2022-12-07T08:12:05;99500.50;;;4.84;75.19
75996;BME280;64681;49.738;9.004;2022-12-07T08:14:31;99484.91;;;4.83;74.90
75996;BME280;64681;49.738;9.004;2022-12-07T08:16:57;99501.22;;;4.90;75.51
75996;BME280;64681;49.738;9.004;2022-12-07T08:19:23;99503.31;;;4.93;74.97
75996;BME280;64681;49.738;9.004;2022-12-07T08:21:49;99505.56;;;5.00;75.21
75996;BME280;64681;49.738;9.004;2022-12-07T08:24:14;99511.34;;;5.02;75.57
75996;BME280;64681;49.738;9.004;2022-12-07T08:26:41;99502.75;;;5.10;74.91
75996;BME280;64681;49.738;9.004;2022-12-07T08:29:07;99511.56;;;5.38;74.45
75996;BME280;64681;49.738;9.004;2022-12-07T08:31:32;99504.44;;;5.53;73.77
75996;BME280;64681;49.738;9.004;2022-12-07T08:33:58;99508.47;;;5.17;74.69
75996;BME280;64681;49.738;9.004;2022-12-07T08:36:23;99507.56;;;5.41;74.30
75996;BME280;64681;49.738;9.004;2022-12-07T08:38:49;99509.84;;;5.62;73.20
75996;BME280;64681;49.738;9.004;2022-12-07T08:41:15;99518.50;;;5.20;73.66
75996;BME280;64681;49.738;9.004;2022-12-07T08:43:41;99509.84;;;5.48;73.89
75996;BME280;64681;49.738;9.004;2022-12-07T08:46:20;99505.22;;;5.53;73.99
75996;BME280;64681;49.738;9.004;2022-12-07T08:48:57;99514.50;;;5.37;73.74
75996;BME280;64681;49.738;9.004;2022-12-07T08:51:27;99512.50;;;5.48;73.44
75996;BME280;64681;49.738;9.004;2022-12-07T08:53:55;99510.72;;;5.57;72.61
75996;BME280;64681;49.738;9.004;2022-12-07T08:56:24;99516.88;;;5.38;73.85
75996;BME280;64681;49.738;9.004;2022-12-07T08:58:50;99514.34;;;5.14;74.79
75996;BME280;64681;49.738;9.004;2022-12-07T09:01:16;99501.06;;;5.33;74.17
75996;BME280;64681;49.738;9.004;2022-12-07T09:03:41;99516.06;;;5.24;74.08
75996;BME280;64681;49.738;9.004;2022-12-07T09:06:07;99515.03;;;5.53;73.37
75996;BME280;64681;49.738;9.004;2022-12-07T09:08:41;99511.50;;;5.58;72.69
75996;BME280;64681;49.738;9.004;2022-12-07T09:11:09;99520.47;;;5.90;72.13
75996;BME280;64681;49.738;9.004;2022-12-07T09:13:35;99514.28;;;5.94;72.74
75996;BME280;64681;49.738;9.004;2022-12-07T09:16:00;99524.66;;;5.63;73.91
75996;BME280;64681;49.738;9.004;2022-12-07T09:18:26;99519.78;;;5.98;73.37
75996;BME280;64681;49.738;9.004;2022-12-07T09:20:51;99526.88;;;6.16;72.92
75996;BME280;64681;49.738;9.004;2022-12-07T09:23:17;99521.97;;;6.10;71.72
75996;BME280;64681;49.738;9.004;2022-12-07T09:25:43;99525.91;;;6.12;72.41
75996;BME280;64681;49.738;9.004;2022-12-07T09:28:09;99530.53;;;6.21;71.60
75996;BME280;64681;49.738;9.004;2022-12-07T09:30:34;99522.06;;;6.05;71.93
75996;BME280;64681;49.738;9.004;2022-12-07T09:33:01;99525.69;;;6.23;70.85
75996;BME280;64681;49.738;9.004;2022-12-07T09:35:26;99515.69;;;6.20;71.49
75996;BME280;64681;49.738;9.004;2022-12-07T09:37:52;99513.00;;;6.47;71.20
75996;BME280;64681;49.738;9.004;2022-12-07T09:40:20;99527.25;;;6.24;70.85
75996;BME280;64681;49.738;9.004;2022-12-07T09:42:52;99516.06;;;6.27;71.62
75996;BME280;64681;49.738;9.004;2022-12-07T09:45:32;99512.91;;;6.75;69.96
75996;BME280;64681;49.738;9.004;2022-12-07T09:47:59;99504.69;;;6.63;70.02
75996;BME280;64681;49.738;9.004;2022-12-07T09:50:28;99516.56;;;6.65;70.55
75996;BME280;64681;49.738;9.004;2022-12-07T09:53:24;99508.63;;;6.88;69.87
75996;BME280;64681;49.738;9.004;2022-12-07T09:55:47;99511.53;;;6.78;69.27
75996;BME280;64681;49.738;9.004;2022-12-07T09:58:24;99505.53;;;6.36;71.03
75996;BME280;64681;49.738;9.004;2022-12-07T10:00:57;99496.91;;;7.03;69.74
75996;BME280;64681;49.738;9.004;2022-12-07T10:03:26;99499.47;;;6.94;68.79
75996;BME280;64681;49.738;9.004;2022-12-07T10:05:52;99500.81;;;7.06;69.61
75996;BME280;64681;49.738;9.004;2022-12-07T10:08:19;99482.09;;;7.11;68.53
75996;BME280;64681;49.738;9.004;2022-12-07T10:10:46;99488.50;;;6.87;68.05
75996;BME280;64681;49.738;9.004;2022-12-07T10:13:20;99494.03;;;6.54;69.68
75996;BME280;64681;49.738;9.004;2022-12-07T10:15:55;99491.44;;;7.31;68.63
75996;BME280;64681;49.738;9.004;2022-12-07T10:18:32;99482.75;;;7.80;67.12
75996;BME280;64681;49.738;9.004;2022-12-07T10:23:28;99462.81;;;8.17;65.17
75996;BME280;64681;49.738;9.004;2022-12-07T10:25:54;99472.22;;;8.23;64.92
75996;BME280;64681;49.738;9.004;2022-12-07T10:28:21;99473.38;;;8.75;63.90
75996;BME280;64681;49.738;9.004;2022-12-07T10:33:40;99469.41;;;8.37;64.13
75996;BME280;64681;49.738;9.004;2022-12-07T10:38:53;99467.50;;;7.63;66.86
75996;BME280;64681;49.738;9.004;2022-12-07T10:41:23;99474.63;;;7.85;66.06
75996;BME280;64681;49.738;9.004;2022-12-07T10:43:52;99477.94;;;7.99;65.21
75996;BME280;64681;49.738;9.004;2022-12-07T10:57:01;99470.63;;;7.65;66.28
75996;BME280;64681;49.738;9.004;2022-12-07T10:59:52;99468.50;;;7.35;67.90
75996;BME280;64681;49.738;9.004;2022-12-07T11:07:52;99459.28;;;7.10;68.67
75996;BME280;64681;49.738;9.004;2022-12-07T11:10:44;99455.88;;;6.87;69.46
75996;BME280;64681;49.738;9.004;2022-12-07T11:13:28;99452.63;;;7.21;68.46
75996;BME280;64681;49.738;9.004;2022-12-07T11:16:20;99450.41;;;7.46;68.59
75996;BME280;64681;49.738;9.004;2022-12-07T11:21:48;99423.84;;;6.24;70.97
75996;BME280;64681;49.738;9.004;2022-12-07T11:24:30;99438.78;;;6.79;69.49
75996;BME280;64681;49.738;9.004;2022-12-07T11:32:50;99431.94;;;7.41;67.98
75996;BME280;64681;49.738;9.004;2022-12-07T11:38:22;99423.88;;;8.21;65.91
75996;BME280;64681;49.738;9.004;2022-12-07T11:40:54;99415.72;;;8.44;64.83
75996;BME280;64681;49.738;9.004;2022-12-07T11:43:27;99423.38;;;8.19;64.95
75996;BME280;64681;49.738;9.004;2022-12-07T11:46:08;99417.69;;;7.86;65.48
75996;BME280;64681;49.738;9.004;2022-12-07T11:48:40;99421.38;;;7.18;68.07
75996;BME280;64681;49.738;9.004;2022-12-07T11:51:11;99414.44;;;7.40;68.16
75996;BME280;64681;49.738;9.004;2022-12-07T11:53:51;99411.91;;;7.35;66.98
75996;BME280;64681;49.738;9.004;2022-12-07T11:56:23;99410.41;;;7.11;67.65
75996;BME280;64681;49.738;9.004;2022-12-07T11:59:09;99413.94;;;6.97;67.67
75996;BME280;64681;49.738;9.004;2022-12-07T12:06:32;99406.03;;;7.47;67.61
75996;BME280;64681;49.738;9.004;2022-12-07T12:23:19;99393.72;;;7.51;67.34
75996;BME280;64681;49.738;9.004;2022-12-07T12:25:49;99387.00;;;7.71;66.43
75996;BME280;64681;49.738;9.004;2022-12-07T12:31:15;99384.25;;;6.73;68.99
75996;BME280;64681;49.738;9.004;2022-12-07T12:33:50;99384.81;;;7.15;67.87
75996;BME280;64681;49.738;9.004;2022-12-07T12:36:25;99381.00;;;7.39;68.26
75996;BME280;64681;49.738;9.004;2022-12-07T12:46:50;99381.69;;;7.22;67.13
75996;BME280;64681;49.738;9.004;2022-12-07T12:49:30;99377.94;;;7.14;68.59
75996;BME280;64681;49.738;9.004;2022-12-07T12:55:12;99375.31;;;6.91;67.90
75996;BME280;64681;49.738;9.004;2022-12-07T12:57:38;99372.75;;;6.77;68.20
75996;BME280;64681;49.738;9.004;2022-12-07T13:00:24;99373.44;;;6.92;69.39
75996;BME280;64681;49.738;9.004;2022-12-07T13:02:56;99365.00;;;6.90;68.92
75996;BME280;64681;49.738;9.004;2022-12-07T13:05:29;99368.75;;;7.20;67.79
75996;BME280;64681;49.738;9.004;2022-12-07T13:08:04;99353.50;;;7.43;67.16
75996;BME280;64681;49.738;9.004;2022-12-07T13:10:44;99354.63;;;7.51;66.95
75996;BME280;64681;49.738;9.004;2022-12-07T13:20:42;99348.75;;;7.89;66.29
75996;BME280;64681;49.738;9.004;2022-12-07T13:23:09;99345.53;;;7.43;65.32
75996;BME280;64681;49.738;9.004;2022-12-07T13:25:48;99347.16;;;7.62;66.79
75996;BME280;64681;49.738;9.004;2022-12-07T13:28:21;99343.28;;;8.03;65.59
75996;BME280;64681;49.738;9.004;2022-12-07T13:33:17;99334.19;;;7.96;66.35
75996;BME280;64681;49.738;9.004;2022-12-07T13:35:44;99337.19;;;7.94;65.15
75996;BME280;64681;49.738;9.004;2022-12-07T13:38:31;99330.28;;;7.75;65.89
75996;BME280;64681;49.738;9.004;2022-12-07T13:43:28;99335.63;;;7.84;65.83
75996;BME280;64681;49.738;9.004;2022-12-07T13:45:58;99332.16;;;7.75;65.35
75996;BME280;64681;49.738;9.004;2022-12-07T13:48:43;99332.41;;;7.38;66.51
75996;BME280;64681;49.738;9.004;2022-12-07T13:51:18;99335.88;;;7.56;66.47
75996;BME280;64681;49.738;9.004;2022-12-07T13:53:49;99339.91;;;7.45;66.43
75996;BME280;64681;49.738;9.004;2022-12-07T13:56:15;99333.84;;;7.53;67.05
75996;BME280;64681;49.738;9.004;2022-12-07T13:58:41;99336.28;;;7.32;67.53
75996;BME280;64681;49.738;9.004;2022-12-07T14:01:08;99341.66;;;7.01;68.25
75996;BME280;64681;49.738;9.004;2022-12-07T14:03:35;99343.94;;;7.34;67.43
75996;BME280;64681;49.738;9.004;2022-12-07T14:08:43;99325.84;;;6.64;68.28
75996;BME280;64681;49.738;9.004;2022-12-07T14:11:17;99336.41;;;6.78;68.94
75996;BME280;64681;49.738;9.004;2022-12-07T14:16:32;99349.84;;;6.36;70.07
75996;BME280;64681;49.738;9.004;2022-12-07T14:19:02;99342.97;;;6.80;69.70
75996;BME280;64681;49.738;9.004;2022-12-07T14:21:31;99350.22;;;6.21;71.85
75996;BME280;64681;49.738;9.004;2022-12-07T14:26:34;99349.06;;;6.13;72.32
75996;BME280;64681;49.738;9.004;2022-12-07T14:31:52;99346.47;;;5.85;73.20
75996;BME280;64681;49.738;9.004;2022-12-07T14:34:22;99351.84;;;5.80;74.23
75996;BME280;64681;49.738;9.004;2022-12-07T14:36:48;99349.38;;;5.05;77.70
75996;BME280;64681;49.738;9.004;2022-12-07T14:39:14;99334.94;;;4.97;78.25
75996;BME280;64681;49.738;9.004;2022-12-07T14:41:40;99338.09;;;5.27;77.60
75996;BME280;64681;49.738;9.004;2022-12-07T14:44:20;99344.03;;;4.91;79.38
75996;BME280;64681;49.738;9.004;2022-12-07T14:46:47;99337.97;;;5.04;79.74
75996;BME280;64681;49.738;9.004;2022-12-07T14:49:13;99335.53;;;5.50;78.40
75996;BME280;64681;49.738;9.004;2022-12-07T14:51:41;99340.63;;;5.60;77.59
75996;BME280;64681;49.738;9.004;2022-12-07T14:54:19;99334.50;;;5.74;76.63
75996;BME280;64681;49.738;9.004;2022-12-07T14:56:45;99334.00;;;5.71;77.01
75996;BME280;64681;49.738;9.004;2022-12-07T14:59:15;99332.78;;;5.92;76.90
75996;BME280;64681;49.738;9.004;2022-12-07T15:01:41;99331.72;;;6.07;76.11
75996;BME280;64681;49.738;9.004;2022-12-07T15:04:07;99312.09;;;5.43;76.64
75996;BME280;64681;49.738;9.004;2022-12-07T15:06:32;99326.28;;;5.61;76.45
75996;BME280;64681;49.738;9.004;2022-12-07T15:08:58;99324.16;;;5.35;77.64
75996;BME280;64681;49.738;9.004;2022-12-07T15:11:24;99333.69;;;5.09;79.53
75996;BME280;64681;49.738;9.004;2022-12-07T15:13:49;99327.59;;;5.08;79.33
75996;BME280;64681;49.738;9.004;2022-12-07T15:16:35;99322.13;;;5.32;78.08
75996;BME280;64681;49.738;9.004;2022-12-07T15:19:01;99317.16;;;5.53;77.19
75996;BME280;64681;49.738;9.004;2022-12-07T15:21:26;99323.56;;;5.25;77.81
75996;BME280;64681;49.738;9.004;2022-12-07T15:23:53;99321.13;;;5.28;77.64
75996;BME280;64681;49.738;9.004;2022-12-07T15:26:19;99314.38;;;5.22;77.64
75996;BME280;64681;49.738;9.004;2022-12-07T15:28:44;99320.44;;;5.09;78.23
75996;BME280;64681;49.738;9.004;2022-12-07T15:31:14;99329.13;;;4.95;78.86
75996;BME280;64681;49.738;9.004;2022-12-07T15:33:41;99323.66;;;4.78;79.26
75996;BME280;64681;49.738;9.004;2022-12-07T15:36:06;99314.56;;;4.98;78.54